sensor_id;sensor_type;location;lat;lon;timestamp;pressure;altitude;pressure_sealevel;temperature;humidity
61026;BME280;46911;32.650;-16.902;2023-05-08T00:01:03;102269.16;;;19.09;80.78
61026;BME280;46911;32.650;-16.902;2023-05-08T00:03:04;102263.25;;;19.04;80.63
61026;BME280;46911;32.650;-16.902;2023-05-08T00:05:08;102283.06;;;19.16;80.81
61026;BME280;46911;32.650;-16.902;2023-05-08T00:07:09;102268.56;;;19.17;80.72
61026;BME280;46911;32.650;-16.902;2023-05-08T00:09:15;102222.56;;;18.83;80.75
61026;BME280;46911;32.650;-16.902;2023-05-08T00:11:15;102262.66;;;19.00;80.73
61026;BME280;46911;32.650;-16.902;2023-05-08T00:13:19;102250.25;;;18.98;80.84
61026;BME280;46911;32.650;-16.902;2023-05-08T00:15:24;102250.38;;;18.96;80.78
61026;BME280;46911;32.650;-16.902;2023-05-08T00:17:26;102280.09;;;19.07;80.68
61026;BME280;46911;32.650;-16.902;2023-05-08T00:19:26;102272.97;;;19.06;80.74
61026;BME280;46911;32.650;-16.902;2023-05-08T00:21:27;102274.97;;;19.04;80.25
61026;BME280;46911;32.650;-16.902;2023-05-08T00:23:28;102275.22;;;19.01;80.34
61026;BME280;46911;32.650;-16.902;2023-05-08T00:25:29;102244.34;;;18.93;80.16
61026;BME280;46911;32.650;-16.902;2023-05-08T00:27:31;102277.28;;;18.98;80.40
61026;BME280;46911;32.650;-16.902;2023-05-08T00:29:35;102256.47;;;18.87;80.25
61026;BME280;46911;32.650;-16.902;2023-05-08T00:31:36;102277.91;;;19.01;79.91
61026;BME280;46911;32.650;-16.902;2023-05-08T00:33:36;102272.97;;;18.95;80.38
61026;BME280;46911;32.650;-16.902;2023-05-08T00:35:40;102276.66;;;18.94;80.04
61026;BME280;46911;32.650;-16.902;2023-05-08T00:37:42;102262.50;;;18.90;80.40
61026;BME280;46911;32.650;-16.902;2023-05-08T00:39:46;102268.06;;;19.00;79.50
61026;BME280;46911;32.650;-16.902;2023-05-08T00:41:47;102272.34;;;18.92;79.56
61026;BME280;46911;32.650;-16.902;2023-05-08T00:43:56;102268.03;;;18.89;79.55
61026;BME280;46911;32.650;-16.902;2023-05-08T00:46:00;102268.03;;;18.89;79.74
61026;BME280;46911;32.650;-16.902;2023-05-08T00:48:03;102269.66;;;18.92;79.73
61026;BME280;46911;32.650;-16.902;2023-05-08T00:50:09;102240.09;;;18.77;79.72
61026;BME280;46911;32.650;-16.902;2023-05-08T00:52:13;102257.22;;;18.89;79.72
61026;BME280;46911;32.650;-16.902;2023-05-08T00:54:16;102257.56;;;18.84;79.82
61026;BME280;46911;32.650;-16.902;2023-05-08T00:56:19;102245.28;;;18.80;79.42
61026;BME280;46911;32.650;-16.902;2023-05-08T00:58:25;102234.31;;;18.70;79.57
61026;BME280;46911;32.650;-16.902;2023-05-08T01:00:31;102247.09;;;18.80;79.73
61026;BME280;46911;32.650;-16.902;2023-05-08T01:02:35;102250.44;;;18.83;79.72
61026;BME280;46911;32.650;-16.902;2023-05-08T01:04:38;102244.66;;;18.77;79.89
61026;BME280;46911;32.650;-16.902;2023-05-08T01:06:43;102250.81;;;18.79;79.87
61026;BME280;46911;32.650;-16.902;2023-05-08T01:08:47;102239.38;;;18.75;79.96
61026;BME280;46911;32.650;-16.902;2023-05-08T01:15:28;102253.34;;;18.69;79.90
61026;BME280;46911;32.650;-16.902;2023-05-08T01:34:17;102212.31;;;18.52;80.29
61026;BME280;46911;32.650;-16.902;2023-05-08T01:36:28;102225.22;;;18.60;80.44
61026;BME280;46911;32.650;-16.902;2023-05-08T01:38:44;102213.03;;;18.54;80.34
61026;BME280;46911;32.650;-16.902;2023-05-08T01:41:01;102225.22;;;18.60;80.57
61026;BME280;46911;32.650;-16.902;2023-05-08T01:45:27;102205.78;;;18.44;81.22
61026;BME280;46911;32.650;-16.902;2023-05-08T01:47:32;102221.50;;;18.50;81.29
61026;BME280;46911;32.650;-16.902;2023-05-08T01:50:02;102214.88;;;18.43;81.16
61026;BME280;46911;32.650;-16.902;2023-05-08T01:52:13;102214.25;;;18.39;81.13
61026;BME280;46911;32.650;-16.902;2023-05-08T01:54:22;102208.84;;;18.39;81.61
61026;BME280;46911;32.650;-16.902;2023-05-08T01:56:31;102185.81;;;18.22;81.55
61026;BME280;46911;32.650;-16.902;2023-05-08T01:58:36;102206.59;;;18.33;81.97
61026;BME280;46911;32.650;-16.902;2023-05-08T02:00:41;102215.59;;;18.33;82.03
61026;BME280;46911;32.650;-16.902;2023-05-08T02:02:45;102213.16;;;18.42;81.92
61026;BME280;46911;32.650;-16.902;2023-05-08T02:04:48;102199.59;;;18.30;81.98
61026;BME280;46911;32.650;-16.902;2023-05-08T02:06:50;102156.94;;;18.11;82.07
61026;BME280;46911;32.650;-16.902;2023-05-08T02:08:53;102205.50;;;18.35;82.59
61026;BME280;46911;32.650;-16.902;2023-05-08T02:11:03;102211.50;;;18.28;82.71
61026;BME280;46911;32.650;-16.902;2023-05-08T02:13:09;102170.47;;;18.11;82.85
61026;BME280;46911;32.650;-16.902;2023-05-08T02:15:12;102224.28;;;18.37;82.63
61026;BME280;46911;32.650;-16.902;2023-05-08T02:17:19;102208.66;;;18.29;82.99
61026;BME280;46911;32.650;-16.902;2023-05-08T02:19:24;102213.63;;;18.35;83.02
61026;BME280;46911;32.650;-16.902;2023-05-08T02:21:34;102209.94;;;18.36;83.08
61026;BME280;46911;32.650;-16.902;2023-05-08T02:23:43;102205.50;;;18.35;83.38
61026;BME280;46911;32.650;-16.902;2023-05-08T02:25:46;102201.06;;;18.23;83.44
61026;BME280;46911;32.650;-16.902;2023-05-08T02:27:48;102208.47;;;18.32;83.70
61026;BME280;46911;32.650;-16.902;2023-05-08T02:29:56;102198.88;;;18.28;83.87
61026;BME280;46911;32.650;-16.902;2023-05-08T02:32:00;102187.69;;;18.21;83.75
61026;BME280;46911;32.650;-16.902;2023-05-08T02:34:03;102186.06;;;18.19;83.95
61026;BME280;46911;32.650;-16.902;2023-05-08T02:36:06;102185.38;;;18.28;83.94
61026;BME280;46911;32.650;-16.902;2023-05-08T02:38:08;102188.31;;;18.36;83.81
61026;BME280;46911;32.650;-16.902;2023-05-08T02:40:16;102197.16;;;18.38;83.89
61026;BME280;46911;32.650;-16.902;2023-05-08T02:42:18;102204.78;;;18.33;83.99
61026;BME280;46911;32.650;-16.902;2023-05-08T02:44:24;102184.97;;;18.21;84.71
61026;BME280;46911;32.650;-16.902;2023-05-08T02:46:45;102189.53;;;18.32;84.95
61026;BME280;46911;32.650;-16.902;2023-05-08T02:49:04;102167.28;;;18.17;84.71
61026;BME280;46911;32.650;-16.902;2023-05-08T02:53:34;102183.25;;;18.32;84.98
61026;BME280;46911;32.650;-16.902;2023-05-08T02:55:59;102180.69;;;18.30;85.30
61026;BME280;46911;32.650;-16.902;2023-05-08T02:58:23;102150.22;;;18.17;85.37
61026;BME280;46911;32.650;-16.902;2023-05-08T03:00:31;102160.78;;;18.20;85.58
61026;BME280;46911;32.650;-16.902;2023-05-08T03:02:47;102158.69;;;18.12;85.86
61026;BME280;46911;32.650;-16.902;2023-05-08T03:05:01;102180.56;;;18.20;85.89
61026;BME280;46911;32.650;-16.902;2023-05-08T03:07:07;102159.03;;;18.07;86.34
61026;BME280;46911;32.650;-16.902;2023-05-08T03:09:15;102173.53;;;18.18;86.41
61026;BME280;46911;32.650;-16.902;2023-05-08T03:11:21;102180.78;;;18.17;86.73
61026;BME280;46911;32.650;-16.902;2023-05-08T03:13:26;102164.78;;;18.03;86.84
61026;BME280;46911;32.650;-16.902;2023-05-08T03:15:36;102165.19;;;18.10;87.06
61026;BME280;46911;32.650;-16.902;2023-05-08T03:17:42;102182.50;;;18.18;87.07
61026;BME280;46911;32.650;-16.902;2023-05-08T03:19:51;102179.41;;;18.12;86.96
61026;BME280;46911;32.650;-16.902;2023-05-08T03:21:57;102179.53;;;18.10;87.28
61026;BME280;46911;32.650;-16.902;2023-05-08T03:24:01;102177.47;;;18.14;87.31
61026;BME280;46911;32.650;-16.902;2023-05-08T03:26:06;102185.56;;;18.14;87.58
61026;BME280;46911;32.650;-16.902;2023-05-08T03:28:14;102161.34;;;18.01;87.65
61026;BME280;46911;32.650;-16.902;2023-05-08T03:30:17;102161.34;;;18.01;87.53
61026;BME280;46911;32.650;-16.902;2023-05-08T03:32:26;102160.13;;;18.05;87.71
61026;BME280;46911;32.650;-16.902;2023-05-08T03:34:28;102158.75;;;17.99;88.16
61026;BME280;46911;32.650;-16.902;2023-05-08T03:36:35;102169.59;;;18.11;88.27
61026;BME280;46911;32.650;-16.902;2023-05-08T03:38:41;102161.72;;;18.07;88.44
61026;BME280;46911;32.650;-16.902;2023-05-08T03:40:43;102150.03;;;17.96;88.25
61026;BME280;46911;32.650;-16.902;2023-05-08T03:42:48;102180.63;;;18.07;88.48
61026;BME280;46911;32.650;-16.902;2023-05-08T03:44:50;102146.59;;;17.94;88.70
61026;BME280;46911;32.650;-16.902;2023-05-08T03:46:54;102152.63;;;17.97;88.62
61026;BME280;46911;32.650;-16.902;2023-05-08T03:48:56;102169.94;;;18.06;88.79
61026;BME280;46911;32.650;-16.902;2023-05-08T03:51:01;102164.78;;;18.03;88.68
61026;BME280;46911;32.650;-16.902;2023-05-08T03:53:05;102151.13;;;17.93;88.75
61026;BME280;46911;32.650;-16.902;2023-05-08T03:55:11;102150.47;;;17.89;89.02
61026;BME280;46911;32.650;-16.902;2023-05-08T03:57:13;102156.72;;;17.90;89.19
61026;BME280;46911;32.650;-16.902;2023-05-08T03:59:27;102165.78;;;17.89;89.34
61026;BME280;46911;32.650;-16.902;2023-05-08T04:01:39;102178.19;;;17.91;89.47
61026;BME280;46911;32.650;-16.902;2023-05-08T04:03:52;102187.94;;;17.94;89.63
61026;BME280;46911;32.650;-16.902;2023-05-08T04:08:25;102182.19;;;17.99;89.27
61026;BME280;46911;32.650;-16.902;2023-05-08T04:10:31;102191.78;;;18.03;89.15
61026;BME280;46911;32.650;-16.902;2023-05-08T04:15:12;102186.50;;;18.01;88.38
61026;BME280;46911;32.650;-16.902;2023-05-08T04:17:38;102192.25;;;17.97;88.38
61026;BME280;46911;32.650;-16.902;2023-05-08T04:19:45;102178.44;;;17.88;88.18
61026;BME280;46911;32.650;-16.902;2023-05-08T04:21:48;102174.38;;;17.83;88.03
61026;BME280;46911;32.650;-16.902;2023-05-08T04:23:56;102163.19;;;17.76;88.20
61026;BME280;46911;32.650;-16.902;2023-05-08T04:26:01;102160.69;;;17.73;88.01
61026;BME280;46911;32.650;-16.902;2023-05-08T04:28:07;102166.97;;;17.73;87.64
61026;BME280;46911;32.650;-16.902;2023-05-08T04:30:10;102181.00;;;17.79;87.68
61026;BME280;46911;32.650;-16.902;2023-05-08T04:32:11;102182.59;;;17.81;87.58
61026;BME280;46911;32.650;-16.902;2023-05-08T04:34:16;102163.19;;;17.76;87.00
61026;BME280;46911;32.650;-16.902;2023-05-08T04:36:17;102155.41;;;17.71;86.48
61026;BME280;46911;32.650;-16.902;2023-05-08T04:38:21;102159.31;;;17.67;86.28
61026;BME280;46911;32.650;-16.902;2023-05-08T04:40:23;102163.13;;;17.65;86.44
61026;BME280;46911;32.650;-16.902;2023-05-08T04:42:26;102178.50;;;17.76;86.18
61026;BME280;46911;32.650;-16.902;2023-05-08T04:44:30;102161.31;;;17.65;86.21
61026;BME280;46911;32.650;-16.902;2023-05-08T04:46:37;102171.50;;;17.73;86.04
61026;BME280;46911;32.650;-16.902;2023-05-08T04:48:43;102156.31;;;17.72;85.97
61026;BME280;46911;32.650;-16.902;2023-05-08T04:50:49;102143.50;;;17.63;85.91
61026;BME280;46911;32.650;-16.902;2023-05-08T04:52:53;102163.31;;;17.74;86.31
61026;BME280;46911;32.650;-16.902;2023-05-08T04:54:58;102145.44;;;17.61;86.38
61026;BME280;46911;32.650;-16.902;2023-05-08T04:56:59;102168.34;;;17.79;86.52
61026;BME280;46911;32.650;-16.902;2023-05-08T04:59:02;102137.44;;;17.83;86.22
61026;BME280;46911;32.650;-16.902;2023-05-08T05:01:04;102159.03;;;17.83;85.91
61026;BME280;46911;32.650;-16.902;2023-05-08T05:03:07;102157.03;;;17.74;86.16
61026;BME280;46911;32.650;-16.902;2023-05-08T05:05:08;102148.09;;;17.73;86.29
61026;BME280;46911;32.650;-16.902;2023-05-08T05:07:11;102147.44;;;17.70;86.50
61026;BME280;46911;32.650;-16.902;2023-05-08T05:09:12;102162.53;;;17.72;86.89
61026;BME280;46911;32.650;-16.902;2023-05-08T05:11:16;102175.41;;;17.69;86.67
61026;BME280;46911;32.650;-16.902;2023-05-08T05:13:16;102173.59;;;17.69;87.08
61026;BME280;46911;32.650;-16.902;2023-05-08T05:15:20;102157.31;;;17.58;86.96
61026;BME280;46911;32.650;-16.902;2023-05-08T05:17:22;102163.94;;;17.54;87.47
61026;BME280;46911;32.650;-16.902;2023-05-08T05:19:23;102178.56;;;17.63;87.49
61026;BME280;46911;32.650;-16.902;2023-05-08T05:21:24;102156.91;;;17.51;87.36
61026;BME280;46911;32.650;-16.902;2023-05-08T05:23:29;102151.00;;;17.46;87.28
61026;BME280;46911;32.650;-16.902;2023-05-08T05:25:33;102172.53;;;17.59;87.11
61026;BME280;46911;32.650;-16.902;2023-05-08T05:27:35;102160.50;;;17.52;87.36
61026;BME280;46911;32.650;-16.902;2023-05-08T05:29:44;102162.97;;;17.55;87.22
61026;BME280;46911;32.650;-16.902;2023-05-08T05:31:45;102145.50;;;17.48;87.05
61026;BME280;46911;32.650;-16.902;2023-05-08T05:33:49;102140.31;;;17.45;86.74
61026;BME280;46911;32.650;-16.902;2023-05-08T05:35:50;102160.97;;;17.57;86.63
61026;BME280;46911;32.650;-16.902;2023-05-08T05:37:56;102147.44;;;17.46;86.97
61026;BME280;46911;32.650;-16.902;2023-05-08T05:39:57;102146.59;;;17.45;87.33
61026;BME280;46911;32.650;-16.902;2023-05-08T05:42:01;102162.44;;;17.50;87.46
61026;BME280;46911;32.650;-16.902;2023-05-08T05:44:02;102167.94;;;17.48;87.70
61026;BME280;46911;32.650;-16.902;2023-05-08T05:46:07;102165.13;;;17.50;87.62
61026;BME280;46911;32.650;-16.902;2023-05-08T05:48:14;102178.84;;;17.47;87.97
61026;BME280;46911;32.650;-16.902;2023-05-08T05:50:16;102183.38;;;17.46;88.19
61026;BME280;46911;32.650;-16.902;2023-05-08T05:52:20;102192.66;;;17.42;88.43
61026;BME280;46911;32.650;-16.902;2023-05-08T05:54:24;102162.38;;;17.38;88.63
61026;BME280;46911;32.650;-16.902;2023-05-08T05:56:28;102187.25;;;17.55;88.48
61026;BME280;46911;32.650;-16.902;2023-05-08T05:58:29;102165.56;;;17.44;88.31
61026;BME280;46911;32.650;-16.902;2023-05-08T06:00:30;102169.38;;;17.41;88.20
61026;BME280;46911;32.650;-16.902;2023-05-08T06:02:34;102187.25;;;17.55;88.07
61026;BME280;46911;32.650;-16.902;2023-05-08T06:04:35;102184.53;;;17.55;88.30
61026;BME280;46911;32.650;-16.902;2023-05-08T06:06:38;102179.03;;;17.56;88.01
61026;BME280;46911;32.650;-16.902;2023-05-08T06:08:39;102168.28;;;17.44;88.23
61026;BME280;46911;32.650;-16.902;2023-05-08T06:10:43;102173.06;;;17.40;88.38
61026;BME280;46911;32.650;-16.902;2023-05-08T06:12:47;102176.16;;;17.47;88.43
61026;BME280;46911;32.650;-16.902;2023-05-08T06:14:53;102189.19;;;17.53;88.29
61026;BME280;46911;32.650;-16.902;2023-05-08T06:16:55;102164.00;;;17.41;88.64
61026;BME280;46911;32.650;-16.902;2023-05-08T06:18:59;102176.88;;;17.49;88.69
61026;BME280;46911;32.650;-16.902;2023-05-08T06:21:02;102159.03;;;17.35;88.89
61026;BME280;46911;32.650;-16.902;2023-05-08T06:23:06;102128.88;;;17.17;88.91
61026;BME280;46911;32.650;-16.902;2023-05-08T06:25:09;102122.22;;;17.10;89.09
61026;BME280;46911;32.650;-16.902;2023-05-08T06:27:15;102182.75;;;17.43;89.38
61026;BME280;46911;32.650;-16.902;2023-05-08T06:29:16;102189.00;;;17.43;89.53
61026;BME280;46911;32.650;-16.902;2023-05-08T06:31:17;102194.28;;;17.45;89.73
61026;BME280;46911;32.650;-16.902;2023-05-08T06:33:20;102181.56;;;17.47;90.02
61026;BME280;46911;32.650;-16.902;2023-05-08T06:35:27;102187.25;;;17.55;89.91
61026;BME280;46911;32.650;-16.902;2023-05-08T06:37:28;102198.56;;;17.60;89.84
61026;BME280;46911;32.650;-16.902;2023-05-08T06:39:32;102199.28;;;17.62;89.80
61026;BME280;46911;32.650;-16.902;2023-05-08T06:41:33;102200.91;;;17.65;89.82
61026;BME280;46911;32.650;-16.902;2023-05-08T06:43:34;102175.34;;;17.57;89.70
61026;BME280;46911;32.650;-16.902;2023-05-08T06:45:44;102190.22;;;17.63;89.73
61026;BME280;46911;32.650;-16.902;2023-05-08T06:47:47;102208.94;;;17.78;89.76
61026;BME280;46911;32.650;-16.902;2023-05-08T06:49:50;102186.09;;;17.70;89.39
61026;BME280;46911;32.650;-16.902;2023-05-08T06:51:53;102204.78;;;17.85;89.24
61026;BME280;46911;32.650;-16.902;2023-05-08T06:53:54;102205.19;;;17.91;89.16
61026;BME280;46911;32.650;-16.902;2023-05-08T06:55:55;102180.50;;;17.85;88.99
61026;BME280;46911;32.650;-16.902;2023-05-08T06:57:58;102184.69;;;17.89;88.57
61026;BME280;46911;32.650;-16.902;2023-05-08T06:59:59;102185.03;;;17.97;88.42
61026;BME280;46911;32.650;-16.902;2023-05-08T07:02:00;102205.81;;;18.08;88.39
61026;BME280;46911;32.650;-16.902;2023-05-08T07:04:06;102195.22;;;18.05;88.24
61026;BME280;46911;32.650;-16.902;2023-05-08T07:06:11;102161.81;;;17.95;87.64
61026;BME280;46911;32.650;-16.902;2023-05-08T07:08:14;102210.19;;;18.33;87.10
61026;BME280;46911;32.650;-16.902;2023-05-08T07:10:20;102215.72;;;18.43;86.46
61026;BME280;46911;32.650;-16.902;2023-05-08T07:12:26;102218.69;;;18.51;86.37
61026;BME280;46911;32.650;-16.902;2023-05-08T07:14:27;102223.13;;;18.64;85.72
61026;BME280;46911;32.650;-16.902;2023-05-08T07:16:30;102217.75;;;18.75;84.98
61026;BME280;46911;32.650;-16.902;2023-05-08T07:18:31;102236.16;;;18.81;84.41
61026;BME280;46911;32.650;-16.902;2023-05-08T07:20:34;102214.19;;;18.86;83.60
61026;BME280;46911;32.650;-16.902;2023-05-08T07:22:35;102229.34;;;19.00;83.11
61026;BME280;46911;32.650;-16.902;2023-05-08T07:24:36;102197.22;;;18.84;82.67
61026;BME280;46911;32.650;-16.902;2023-05-08T07:26:40;102233.88;;;19.22;81.81
61026;BME280;46911;32.650;-16.902;2023-05-08T07:28:40;102240.78;;;19.26;81.62
61026;BME280;46911;32.650;-16.902;2023-05-08T07:30:41;102228.00;;;19.28;81.31
61026;BME280;46911;32.650;-16.902;2023-05-08T07:32:42;102226.75;;;19.32;80.79
61026;BME280;46911;32.650;-16.902;2023-05-08T07:34:46;102244.56;;;19.57;79.75
61026;BME280;46911;32.650;-16.902;2023-05-08T07:36:49;102249.19;;;19.67;79.41
61026;BME280;46911;32.650;-16.902;2023-05-08T07:38:50;102252.16;;;19.64;79.62
61026;BME280;46911;32.650;-16.902;2023-05-08T07:40:56;102247.84;;;19.72;79.16
61026;BME280;46911;32.650;-16.902;2023-05-08T07:42:59;102264.56;;;19.89;78.76
61026;BME280;46911;32.650;-16.902;2023-05-08T07:45:00;102265.75;;;19.96;78.10
61026;BME280;46911;32.650;-16.902;2023-05-08T07:47:01;102271.78;;;20.00;77.59
61026;BME280;46911;32.650;-16.902;2023-05-08T07:49:05;102267.69;;;20.05;77.61
61026;BME280;46911;32.650;-16.902;2023-05-08T07:51:06;102264.41;;;20.02;77.32
61026;BME280;46911;32.650;-16.902;2023-05-08T07:53:07;102270.63;;;20.14;77.64
61026;BME280;46911;32.650;-16.902;2023-05-08T07:55:08;102281.41;;;20.25;77.05
61026;BME280;46911;32.650;-16.902;2023-05-08T07:57:09;102268.94;;;20.34;76.84
61026;BME280;46911;32.650;-16.902;2023-05-08T07:59:14;102293.75;;;20.50;76.49
61026;BME280;46911;32.650;-16.902;2023-05-08T08:01:15;102282.50;;;20.55;76.60
61026;BME280;46911;32.650;-16.902;2023-05-08T08:03:20;102291.22;;;20.58;76.48
61026;BME280;46911;32.650;-16.902;2023-05-08T08:05:25;102290.56;;;20.66;76.94
61026;BME280;46911;32.650;-16.902;2023-05-08T08:07:33;102297.84;;;20.66;76.61
61026;BME280;46911;32.650;-16.902;2023-05-08T08:09:36;102283.50;;;20.54;76.98
61026;BME280;46911;32.650;-16.902;2023-05-08T08:11:43;102291.38;;;20.57;77.11
61026;BME280;46911;32.650;-16.902;2023-05-08T08:13:46;102294.53;;;20.62;77.45
61026;BME280;46911;32.650;-16.902;2023-05-08T08:15:52;102290.38;;;20.58;77.48
61026;BME280;46911;32.650;-16.902;2023-05-08T08:17:56;102292.16;;;20.48;78.40
61026;BME280;46911;32.650;-16.902;2023-05-08T08:20:00;102286.47;;;20.30;78.73
61026;BME280;46911;32.650;-16.902;2023-05-08T08:22:03;102284.81;;;20.38;78.19
61026;BME280;46911;32.650;-16.902;2023-05-08T08:24:04;102289.59;;;20.35;79.03
61026;BME280;46911;32.650;-16.902;2023-05-08T08:26:05;102273.16;;;20.27;79.11
61026;BME280;46911;32.650;-16.902;2023-05-08T08:28:11;102288.13;;;20.42;79.16
61026;BME280;46911;32.650;-16.902;2023-05-08T08:30:14;102282.28;;;20.47;79.56
61026;BME280;46911;32.650;-16.902;2023-05-08T08:32:18;102289.69;;;20.77;78.91
61026;BME280;46911;32.650;-16.902;2023-05-08T08:34:21;102290.47;;;20.89;78.14
61026;BME280;46911;32.650;-16.902;2023-05-08T08:36:22;102282.47;;;20.87;78.75
61026;BME280;46911;32.650;-16.902;2023-05-08T08:38:28;102286.22;;;20.96;77.93
61026;BME280;46911;32.650;-16.902;2023-05-08T08:40:33;102300.50;;;20.98;77.95
61026;BME280;46911;32.650;-16.902;2023-05-08T08:42:37;102300.41;;;21.10;77.45
61026;BME280;46911;32.650;-16.902;2023-05-08T08:44:38;102305.34;;;21.26;77.50
61026;BME280;46911;32.650;-16.902;2023-05-08T08:46:44;102304.94;;;21.30;77.01
61026;BME280;46911;32.650;-16.902;2023-05-08T08:48:52;102293.00;;;21.43;75.59
61026;BME280;46911;32.650;-16.902;2023-05-08T08:50:58;102310.25;;;21.63;75.45
61026;BME280;46911;32.650;-16.902;2023-05-08T08:53:13;102306.84;;;21.70;74.45
61026;BME280;46911;32.650;-16.902;2023-05-08T08:55:17;102307.22;;;21.66;74.31
61026;BME280;46911;32.650;-16.902;2023-05-08T08:57:20;102308.28;;;21.84;74.20
61026;BME280;46911;32.650;-16.902;2023-05-08T08:59:26;102298.00;;;21.88;73.74
61026;BME280;46911;32.650;-16.902;2023-05-08T09:01:33;102313.09;;;22.41;72.59
61026;BME280;46911;32.650;-16.902;2023-05-08T09:03:38;102302.94;;;22.53;70.89
61026;BME280;46911;32.650;-16.902;2023-05-08T09:05:39;102303.63;;;22.55;70.53
61026;BME280;46911;32.650;-16.902;2023-05-08T09:07:41;102282.16;;;22.22;71.31
61026;BME280;46911;32.650;-16.902;2023-05-08T09:09:45;102304.22;;;22.39;71.54
61026;BME280;46911;32.650;-16.902;2023-05-08T09:11:51;102322.41;;;22.38;71.51
61026;BME280;46911;32.650;-16.902;2023-05-08T09:13:55;102317.78;;;22.78;70.59
61026;BME280;46911;32.650;-16.902;2023-05-08T09:15:57;102304.06;;;22.80;69.43
61026;BME280;46911;32.650;-16.902;2023-05-08T09:18:01;102314.53;;;23.32;68.38
61026;BME280;46911;32.650;-16.902;2023-05-08T09:20:05;102326.84;;;23.64;67.85
61026;BME280;46911;32.650;-16.902;2023-05-08T09:22:09;102314.56;;;23.78;66.34
61026;BME280;46911;32.650;-16.902;2023-05-08T09:24:11;102321.81;;;24.15;64.90
61026;BME280;46911;32.650;-16.902;2023-05-08T09:26:26;102314.72;;;24.22;65.52
61026;BME280;46911;32.650;-16.902;2023-05-08T09:28:31;102324.00;;;24.29;63.84
61026;BME280;46911;32.650;-16.902;2023-05-08T09:30:47;102304.00;;;23.74;65.31
61026;BME280;46911;32.650;-16.902;2023-05-08T09:33:00;102315.97;;;24.28;64.10
61026;BME280;46911;32.650;-16.902;2023-05-08T09:35:01;102312.31;;;24.19;63.72
61026;BME280;46911;32.650;-16.902;2023-05-08T09:39:12;102317.28;;;24.05;64.32
61026;BME280;46911;32.650;-16.902;2023-05-08T09:41:20;102304.34;;;23.62;65.86
61026;BME280;46911;32.650;-16.902;2023-05-08T09:43:25;102305.50;;;23.59;65.93
61026;BME280;46911;32.650;-16.902;2023-05-08T09:45:34;102320.34;;;23.37;66.82
61026;BME280;46911;32.650;-16.902;2023-05-08T09:47:37;102297.91;;;23.81;65.74
61026;BME280;46911;32.650;-16.902;2023-05-08T09:49:39;102319.38;;;24.12;64.94
61026;BME280;46911;32.650;-16.902;2023-05-08T09:51:52;102317.38;;;24.14;64.06
61026;BME280;46911;32.650;-16.902;2023-05-08T09:53:54;102310.91;;;24.15;63.83
61026;BME280;46911;32.650;-16.902;2023-05-08T09:55:58;102307.00;;;23.99;64.09
61026;BME280;46911;32.650;-16.902;2023-05-08T09:58:03;102313.00;;;24.39;63.77
61026;BME280;46911;32.650;-16.902;2023-05-08T10:00:10;102323.22;;;24.19;63.46
61026;BME280;46911;32.650;-16.902;2023-05-08T10:02:16;102336.09;;;24.63;63.38
61026;BME280;46911;32.650;-16.902;2023-05-08T10:04:35;102297.94;;;24.71;61.98
61026;BME280;46911;32.650;-16.902;2023-05-08T10:06:40;102316.63;;;25.10;61.23
61026;BME280;46911;32.650;-16.902;2023-05-08T10:08:43;102326.91;;;25.16;60.82
61026;BME280;46911;32.650;-16.902;2023-05-08T10:10:48;102309.97;;;25.39;60.01
61026;BME280;46911;32.650;-16.902;2023-05-08T10:12:50;102335.94;;;25.17;60.59
61026;BME280;46911;32.650;-16.902;2023-05-08T10:14:51;102330.34;;;25.53;59.38
61026;BME280;46911;32.650;-16.902;2023-05-08T10:16:54;102326.63;;;25.62;59.10
61026;BME280;46911;32.650;-16.902;2023-05-08T10:18:59;102308.19;;;26.23;56.71
61026;BME280;46911;32.650;-16.902;2023-05-08T10:21:05;102300.94;;;25.47;58.76
61026;BME280;46911;32.650;-16.902;2023-05-08T10:23:18;102318.66;;;25.08;60.50
61026;BME280;46911;32.650;-16.902;2023-05-08T10:25:23;102307.66;;;25.52;59.71
61026;BME280;46911;32.650;-16.902;2023-05-08T10:27:36;102323.41;;;25.32;60.29
61026;BME280;46911;32.650;-16.902;2023-05-08T10:30:00;102325.78;;;26.21;56.77
61026;BME280;46911;32.650;-16.902;2023-05-08T10:32:08;102312.28;;;26.36;56.59
61026;BME280;46911;32.650;-16.902;2023-05-08T10:34:13;102313.63;;;25.56;58.90
61026;BME280;46911;32.650;-16.902;2023-05-08T10:36:22;102317.63;;;25.70;58.56
61026;BME280;46911;32.650;-16.902;2023-05-08T10:38:27;102321.84;;;25.30;59.29
61026;BME280;46911;32.650;-16.902;2023-05-08T10:40:30;102314.06;;;25.35;59.76
61026;BME280;46911;32.650;-16.902;2023-05-08T10:42:33;102331.91;;;26.06;58.10
61026;BME280;46911;32.650;-16.902;2023-05-08T10:44:37;102325.13;;;26.35;56.43
61026;BME280;46911;32.650;-16.902;2023-05-08T10:47:16;102333.50;;;26.59;55.91
61026;BME280;46911;32.650;-16.902;2023-05-08T10:49:29;102318.63;;;26.53;55.76
61026;BME280;46911;32.650;-16.902;2023-05-08T10:54:09;102313.31;;;26.76;54.75
61026;BME280;46911;32.650;-16.902;2023-05-08T10:56:14;102320.81;;;27.15;53.98
61026;BME280;46911;32.650;-16.902;2023-05-08T10:58:28;102328.34;;;27.61;52.30
61026;BME280;46911;32.650;-16.902;2023-05-08T11:00:31;102322.19;;;28.22;50.96
61026;BME280;46911;32.650;-16.902;2023-05-08T11:02:32;102302.38;;;28.12;51.48
61026;BME280;46911;32.650;-16.902;2023-05-08T11:04:41;102305.78;;;27.51;52.79
61026;BME280;46911;32.650;-16.902;2023-05-08T11:06:46;102293.97;;;27.82;51.60
61026;BME280;46911;32.650;-16.902;2023-05-08T11:08:53;102306.88;;;28.04;51.75
61026;BME280;46911;32.650;-16.902;2023-05-08T11:13:04;102289.72;;;27.48;52.54
61026;BME280;46911;32.650;-16.902;2023-05-08T11:15:09;102295.13;;;28.19;50.86